Time;durP1;ratioP1;P1;durP2;ratioP2;P2;SDS_P1;SDS_P2;PMS_P1;PMS_P2;Temp;Humidity;BMP_temperature;BMP_pressure;BME280_temperature;BME280_humidity;BME280_pressure;Samples;Min_cycle;Max_cycle;Signal;HPM_P1;HPM_P2
2021/08/25 00:01:28;;;;;;;9.77;8.87;;;15.10;99.90;;;;;;4996785;28;20561;-81
2021/08/25 00:03:54;;;;;;;9.67;8.87;;;15.10;99.90;;;;;;4996992;28;20164;-81
2021/08/25 00:06:20;;;;;;;10.27;9.43;;;15.20;99.90;;;;;;4979636;28;20538;-81
2021/08/25 00:08:46;;;;;;;9.67;8.97;;;15.10;99.90;;;;;;4979578;28;20172;-81
2021/08/25 00:11:11;;;;;;;10.70;9.70;;;15.10;99.90;;;;;;4997145;28;20697;-81
2021/08/25 00:13:37;;;;;;;10.40;9.40;;;15.10;99.90;;;;;;4996864;28;20258;-81
2021/08/25 00:16:03;;;;;;;10.87;10.00;;;15.10;99.90;;;;;;4978925;28;20175;-81
2021/08/25 00:18:28;;;;;;;9.93;9.23;;;15.10;99.90;;;;;;4997571;28;20255;-81
2021/08/25 00:20:54;;;;;;;11.90;10.70;;;15.10;99.90;;;;;;4979338;28;20253;-81
2021/08/25 00:23:19;;;;;;;10.47;9.50;;;15.00;99.90;;;;;;4997247;28;20168;-81
2021/08/25 00:25:45;;;;;;;10.70;9.77;;;15.00;99.90;;;;;;4996341;28;20215;-81
2021/08/25 00:28:11;;;;;;;10.30;9.50;;;15.00;99.90;;;;;;4978838;28;20203;-81
2021/08/25 00:30:36;;;;;;;10.27;9.47;;;15.10;99.90;;;;;;4996733;28;20254;-81
2021/08/25 00:33:03;;;;;;;11.23;10.33;;;15.10;99.90;;;;;;4996353;28;20179;-81
2021/08/25 00:35:28;;;;;;;11.10;10.00;;;15.10;99.90;;;;;;5024577;22;20283;-78
2021/08/25 00:37:54;;;;;;;10.90;9.83;;;15.00;99.90;;;;;;5007792;28;20168;-78
2021/08/25 00:40:20;;;;;;;11.40;10.50;;;15.10;99.90;;;;;;5008242;28;20196;-79
2021/08/25 00:42:45;;;;;;;11.77;10.40;;;15.10;99.90;;;;;;4990495;28;20576;-78
2021/08/25 00:45:11;;;;;;;11.47;10.43;;;15.10;99.90;;;;;;4998539;28;20202;-78
2021/08/25 00:47:41;;;;;;;10.90;10.00;;;15.00;99.90;;;;;;5009865;28;20171;-78
2021/08/25 00:50:12;;;;;;;10.60;9.70;;;15.00;99.90;;;;;;5010810;28;20172;-78
2021/08/25 00:52:40;;;;;;;11.03;10.13;;;15.00;99.90;;;;;;5027519;28;20176;-78
2021/08/25 00:55:07;;;;;;;10.60;9.70;;;15.00;99.90;;;;;;5028072;28;20187;-79
2021/08/25 00:57:36;;;;;;;10.70;9.80;;;15.00;99.90;;;;;;5027064;28;20193;-77
2021/08/25 01:00:06;;;;;;;11.30;10.30;;;15.00;99.90;;;;;;4990829;28;20207;-78
2021/08/25 01:02:47;;;;;;;11.00;10.10;;;15.00;99.90;;;;;;5008454;28;20183;-78
2021/08/25 01:05:14;;;;;;;10.97;9.93;;;15.00;99.90;;;;;;5008225;28;20251;-79
2021/08/25 01:07:43;;;;;;;9.77;8.97;;;15.00;99.90;;;;;;5008988;28;20176;-79
2021/08/25 01:10:24;;;;;;;9.90;9.00;;;15.00;99.90;;;;;;4991081;28;20175;-77
2021/08/25 01:12:50;;;;;;;10.13;9.33;;;15.10;99.90;;;;;;4991541;28;20223;-79
2021/08/25 01:15:16;;;;;;;10.07;9.27;;;15.10;99.90;;;;;;4991359;28;20192;-78
2021/08/25 01:17:44;;;;;;;9.80;9.00;;;15.10;99.90;;;;;;5008527;28;20172;-78
2021/08/25 01:20:12;;;;;;;9.97;8.97;;;15.10;99.90;;;;;;5008690;28;20532;-78
2021/08/25 01:22:40;;;;;;;9.77;8.97;;;15.10;99.90;;;;;;5009288;28;20183;-78
2021/08/25 01:25:07;;;;;;;9.87;9.07;;;15.10;99.90;;;;;;5008682;28;20200;-78
2021/08/25 01:27:37;;;;;;;9.77;8.87;;;15.10;99.90;;;;;;5028670;28;20179;-78
2021/08/25 01:30:03;;;;;;;9.37;8.67;;;15.10;99.90;;;;;;5028429;28;20171;-79
2021/08/25 01:32:33;;;;;;;9.60;8.80;;;15.10;99.90;;;;;;5026037;28;20179;-78
2021/08/25 01:34:58;;;;;;;8.77;8.07;;;15.10;99.90;;;;;;5027275;28;20211;-77
2021/08/25 01:37:25;;;;;;;8.53;7.93;;;15.10;99.90;;;;;;5027901;28;20172;-78
2021/08/25 01:39:55;;;;;;;9.10;8.40;;;15.10;99.90;;;;;;5029333;28;20177;-78
2021/08/25 01:42:22;;;;;;;9.07;8.33;;;15.10;99.90;;;;;;5029091;28;20201;-77
2021/08/25 01:44:49;;;;;;;9.07;8.37;;;15.10;99.90;;;;;;5026584;28;20195;-78
2021/08/25 01:47:15;;;;;;;9.53;8.73;;;15.10;99.90;;;;;;5029108;28;20171;-78
2021/08/25 01:49:42;;;;;;;9.73;8.87;;;15.10;99.90;;;;;;5027091;28;20550;-78
2021/08/25 01:52:08;;;;;;;10.73;9.67;;;15.10;99.90;;;;;;5027241;28;20190;-78
2021/08/25 01:54:35;;;;;;;9.53;8.63;;;15.10;99.90;;;;;;5029969;28;20211;-78
2021/08/25 01:57:00;;;;;;;9.10;8.30;;;15.00;99.90;;;;;;5031082;28;20225;-79
2021/08/25 01:59:26;;;;;;;9.33;8.57;;;15.10;99.90;;;;;;5031002;28;20610;-79
2021/08/25 02:01:52;;;;;;;8.90;8.07;;;15.10;99.90;;;;;;5031811;28;20195;-78
2021/08/25 02:04:17;;;;;;;8.67;7.97;;;15.10;99.90;;;;;;5031619;28;20171;-79
2021/08/25 02:06:43;;;;;;;9.00;8.20;;;15.10;99.90;;;;;;5031039;28;20171;-79
2021/08/25 02:09:09;;;;;;;8.73;8.03;;;15.10;99.90;;;;;;5030514;28;20171;-78
2021/08/25 02:11:34;;;;;;;9.23;8.53;;;15.10;99.90;;;;;;5030397;28;20184;-78
2021/08/25 02:14:00;;;;;;;8.93;8.33;;;15.10;99.90;;;;;;5032238;28;20175;-77
2021/08/25 02:16:25;;;;;;;8.63;7.87;;;15.10;99.90;;;;;;5030216;28;20225;-79
2021/08/25 02:18:51;;;;;;;8.83;8.13;;;15.10;99.90;;;;;;5031002;28;20179;-79
2021/08/25 02:21:19;;;;;;;9.00;8.30;;;15.10;99.90;;;;;;5030347;28;20207;-78
2021/08/25 02:23:44;;;;;;;8.07;7.33;;;15.10;99.90;;;;;;5031105;28;20179;-78
2021/08/25 02:26:16;;;;;;;8.23;7.53;;;15.10;99.90;;;;;;5030970;28;20195;-78
2021/08/25 02:28:46;;;;;;;9.20;8.50;;;15.10;99.90;;;;;;5031615;28;20587;-79
2021/08/25 02:31:12;;;;;;;8.20;7.60;;;15.10;99.90;;;;;;5032112;28;20553;-78
2021/08/25 02:33:40;;;;;;;9.00;8.30;;;15.10;99.90;;;;;;5030354;28;20203;-79
2021/08/25 02:36:06;;;;;;;9.47;8.77;;;15.20;99.90;;;;;;5031624;28;20214;-78
2021/08/25 02:38:34;;;;;;;9.50;8.80;;;15.20;99.90;;;;;;5031064;28;20171;-78
2021/08/25 02:40:59;;;;;;;10.50;9.70;;;15.10;99.90;;;;;;5031098;28;20195;-78
2021/08/25 02:43:25;;;;;;;9.50;8.80;;;15.10;99.90;;;;;;5028777;28;20171;-79
2021/08/25 02:45:51;;;;;;;10.13;9.13;;;15.10;99.90;;;;;;5029384;28;20191;-78
2021/08/25 02:48:16;;;;;;;9.63;8.83;;;15.00;99.90;;;;;;5029353;28;20591;-78
2021/08/25 02:50:42;;;;;;;9.23;8.53;;;15.00;99.90;;;;;;5028747;28;20632;-77
2021/08/25 02:53:08;;;;;;;10.40;9.60;;;15.00;99.90;;;;;;5028580;28;20194;-79
2021/08/25 02:55:33;;;;;;;10.23;9.33;;;15.00;99.90;;;;;;5029439;28;20262;-78
2021/08/25 02:57:59;;;;;;;9.50;8.80;;;15.00;99.90;;;;;;5028567;28;20175;-78
2021/08/25 03:00:26;;;;;;;9.30;8.60;;;15.10;99.90;;;;;;5031183;28;20199;-78
2021/08/25 03:02:52;;;;;;;9.03;8.33;;;15.10;99.90;;;;;;5031303;28;20204;-78
2021/08/25 03:05:17;;;;;;;9.83;9.13;;;15.10;99.90;;;;;;5027975;28;20571;-79
2021/08/25 03:07:43;;;;;;;9.47;8.60;;;15.10;99.90;;;;;;5028755;28;20187;-79
2021/08/25 03:10:09;;;;;;;9.67;8.87;;;15.10;99.90;;;;;;5030972;28;20176;-78
2021/08/25 03:12:36;;;;;;;8.43;7.73;;;15.10;99.90;;;;;;5030156;28;20171;-79
2021/08/25 03:15:06;;;;;;;7.87;7.17;;;15.10;99.90;;;;;;5029150;28;20701;-77
2021/08/25 03:17:31;;;;;;;8.40;7.70;;;15.10;99.90;;;;;;5029039;28;20179;-79
2021/08/25 03:19:57;;;;;;;7.33;6.73;;;15.10;99.90;;;;;;5027166;28;20179;-79
2021/08/25 03:22:23;;;;;;;6.73;6.13;;;15.00;99.90;;;;;;5028763;28;20238;-78
2021/08/25 03:24:49;;;;;;;6.83;6.33;;;15.00;99.90;;;;;;5028619;28;20610;-78
2021/08/25 03:27:15;;;;;;;6.90;6.40;;;15.00;99.90;;;;;;5027817;28;20171;-79
2021/08/25 03:29:40;;;;;;;7.47;6.87;;;15.00;99.90;;;;;;5029198;28;20222;-79
2021/08/25 03:32:06;;;;;;;6.47;5.97;;;14.90;99.90;;;;;;5028166;28;20203;-79
2021/08/25 03:34:32;;;;;;;6.63;6.10;;;14.90;99.90;;;;;;5027566;28;20630;-79
2021/08/25 03:36:58;;;;;;;7.23;6.63;;;14.90;99.90;;;;;;5028154;28;20191;-79
2021/08/25 03:39:23;;;;;;;6.80;6.30;;;14.90;99.90;;;;;;5028636;28;20184;-79
2021/08/25 03:41:49;;;;;;;7.97;7.37;;;14.90;99.90;;;;;;5026635;28;20686;-78
2021/08/25 03:44:15;;;;;;;7.67;7.07;;;14.80;99.90;;;;;;5028152;28;20246;-79
2021/08/25 03:46:40;;;;;;;7.47;6.80;;;14.80;99.90;;;;;;5026622;28;20279;-78
2021/08/25 03:49:06;;;;;;;7.63;6.93;;;14.80;99.90;;;;;;5027661;28;20167;-79
2021/08/25 03:51:32;;;;;;;7.80;7.20;;;14.80;99.90;;;;;;5028044;28;20653;-78
2021/08/25 03:53:57;;;;;;;6.87;6.37;;;14.80;99.90;;;;;;5028822;28;20178;-79
2021/08/25 03:56:23;;;;;;;7.70;7.00;;;14.80;99.90;;;;;;5027904;28;20197;-79
2021/08/25 03:58:49;;;;;;;7.70;7.00;;;14.70;99.90;;;;;;5027519;28;20171;-80
2021/08/25 04:01:14;;;;;;;9.40;7.13;;;14.70;99.90;;;;;;5027640;28;20226;-79
2021/08/25 04:03:40;;;;;;;7.47;6.83;;;14.70;99.90;;;;;;5027750;28;20174;-79
2021/08/25 04:06:06;;;;;;;8.23;7.37;;;14.70;99.90;;;;;;5026595;28;20198;-79
2021/08/25 04:08:36;;;;;;;7.93;7.13;;;14.60;99.90;;;;;;5028466;28;20182;-80
2021/08/25 04:11:01;;;;;;;9.07;8.37;;;14.60;99.90;;;;;;5024814;28;20174;-78
2021/08/25 04:13:27;;;;;;;8.63;7.80;;;14.60;99.90;;;;;;5015811;28;20183;-77
2021/08/25 04:15:53;;;;;;;8.07;7.13;;;14.60;99.90;;;;;;5017345;28;20226;-78
2021/08/25 04:18:18;;;;;;;8.50;7.80;;;14.50;99.90;;;;;;5026021;28;20638;-79
2021/08/25 04:20:44;;;;;;;7.80;7.20;;;14.60;99.90;;;;;;5027146;28;20203;-79
2021/08/25 04:23:10;;;;;;;7.37;6.60;;;14.50;99.90;;;;;;5025487;28;20175;-79
2021/08/25 04:25:35;;;;;;;6.93;6.33;;;14.50;99.90;;;;;;5027243;28;20195;-79
2021/08/25 04:28:01;;;;;;;6.30;5.80;;;14.50;99.90;;;;;;5027143;28;20262;-79
2021/08/25 04:30:27;;;;;;;6.60;6.10;;;14.50;99.90;;;;;;5026970;28;20242;-78
2021/08/25 04:32:52;;;;;;;6.07;5.57;;;14.50;99.90;;;;;;5026283;28;20175;-79
2021/08/25 04:35:18;;;;;;;6.73;6.20;;;14.50;99.90;;;;;;5025721;28;20238;-79
2021/08/25 04:37:44;;;;;;;5.83;5.37;;;14.50;99.90;;;;;;5025588;28;20179;-80
2021/08/25 04:40:12;;;;;;;6.17;5.70;;;14.50;99.90;;;;;;5025654;28;20179;-80
2021/08/25 04:42:38;;;;;;;5.87;5.37;;;14.50;99.90;;;;;;5026362;28;20588;-79
2021/08/25 04:45:04;;;;;;;6.00;5.40;;;14.50;99.90;;;;;;5027332;28;20203;-79
2021/08/25 04:47:30;;;;;;;5.90;5.50;;;14.50;99.90;;;;;;5027005;28;20205;-79
2021/08/25 04:49:55;;;;;;;6.43;5.93;;;14.50;99.90;;;;;;5026932;28;20572;-78
2021/08/25 04:52:21;;;;;;;7.23;6.73;;;14.50;99.90;;;;;;5027580;28;20554;-79
2021/08/25 04:54:56;;;;;;;8.10;6.77;;;14.60;99.90;;;;;;5026942;28;20230;-79
2021/08/25 04:57:22;;;;;;;7.47;6.70;;;14.60;99.90;;;;;;5027342;28;20158;-80
2021/08/25 04:59:47;;;;;;;7.73;7.03;;;14.50;99.90;;;;;;5027955;28;20209;-79
2021/08/25 05:02:13;;;;;;;7.67;6.97;;;14.60;99.90;;;;;;5027728;28;20204;-79
2021/08/25 05:04:39;;;;;;;7.23;6.73;;;14.60;99.90;;;;;;5027860;28;20187;-78
2021/08/25 05:07:04;;;;;;;8.10;7.43;;;14.60;99.90;;;;;;5027496;28;20680;-79
2021/08/25 05:09:30;;;;;;;7.77;7.07;;;14.60;99.90;;;;;;5027130;28;20215;-78
2021/08/25 05:11:56;;;;;;;9.40;8.63;;;14.50;99.90;;;;;;5027486;28;20175;-78
2021/08/25 05:14:22;;;;;;;8.50;7.73;;;14.50;99.90;;;;;;5028315;28;20238;-78
2021/08/25 05:16:48;;;;;;;9.17;8.27;;;14.50;99.90;;;;;;5026662;28;20516;-79
2021/08/25 05:19:14;;;;;;;9.83;8.83;;;14.60;99.90;;;;;;5028088;28;20179;-79
2021/08/25 05:21:40;;;;;;;9.27;8.57;;;14.60;99.90;;;;;;5026998;28;20619;-79
2021/08/25 05:24:05;;;;;;;9.13;8.37;;;14.60;99.90;;;;;;5027305;28;20180;-78
2021/08/25 05:26:31;;;;;;;9.57;8.77;;;14.60;99.90;;;;;;5027192;28;20210;-78
2021/08/25 05:28:57;;;;;;;9.77;9.07;;;14.60;99.90;;;;;;5030299;28;20237;-79
2021/08/25 05:31:24;;;;;;;10.70;9.53;;;14.60;99.90;;;;;;5031350;28;20190;-78
2021/08/25 05:33:50;;;;;;;9.50;8.70;;;14.50;99.90;;;;;;5032414;28;20202;-78
2021/08/25 05:36:16;;;;;;;10.13;9.20;;;14.60;99.90;;;;;;5032962;28;20211;-79
2021/08/25 05:38:42;;;;;;;10.90;9.80;;;14.60;99.90;;;;;;5015553;28;20186;-79
2021/08/25 05:41:07;;;;;;;10.13;9.33;;;14.60;99.90;;;;;;5014535;28;20214;-78
2021/08/25 05:43:34;;;;;;;10.00;9.20;;;14.60;99.90;;;;;;5014325;28;20193;-79
2021/08/25 05:45:59;;;;;;;9.33;8.47;;;14.60;99.90;;;;;;5015762;28;20194;-79
2021/08/25 05:48:25;;;;;;;10.40;9.30;;;14.60;99.90;;;;;;5015913;28;20174;-78
2021/08/25 05:50:51;;;;;;;9.33;8.47;;;14.60;99.90;;;;;;5015501;28;20179;-79
2021/08/25 05:53:17;;;;;;;10.10;9.20;;;14.70;99.90;;;;;;5031506;28;20192;-79
2021/08/25 05:55:43;;;;;;;10.47;9.50;;;14.70;99.90;;;;;;5014896;28;20261;-79
2021/08/25 05:58:08;;;;;;;8.90;8.20;;;14.70;99.90;;;;;;5015290;28;20198;-79
2021/08/25 06:00:34;;;;;;;10.03;9.17;;;14.70;99.90;;;;;;5016020;28;20206;-79
2021/08/25 06:03:00;;;;;;;10.17;9.27;;;14.80;99.90;;;;;;5032858;28;20230;-79
2021/08/25 06:05:26;;;;;;;9.67;8.87;;;14.70;99.90;;;;;;5033468;28;20183;-79
2021/08/25 06:07:53;;;;;;;9.80;9.00;;;14.80;99.90;;;;;;5033167;28;20240;-81
2021/08/25 06:10:19;;;;;;;8.90;8.20;;;14.80;99.90;;;;;;5016034;28;20176;-79
2021/08/25 06:12:44;;;;;;;10.20;9.30;;;14.80;99.90;;;;;;5015835;28;20202;-79
2021/08/25 06:15:10;;;;;;;10.40;8.80;;;14.90;99.90;;;;;;5032993;28;20197;-79
2021/08/25 06:17:36;;;;;;;9.50;8.80;;;14.90;99.90;;;;;;5016134;28;20210;-79
2021/08/25 06:20:03;;;;;;;9.07;8.30;;;15.00;99.90;;;;;;5032764;28;20175;-79
2021/08/25 06:22:29;;;;;;;11.07;10.10;;;15.00;99.90;;;;;;5032988;28;20195;-79
2021/08/25 06:24:55;;;;;;;9.53;8.70;;;15.00;99.90;;;;;;5016023;28;20704;-80
2021/08/25 06:27:21;;;;;;;10.00;9.00;;;15.10;99.90;;;;;;5014132;28;20171;-79
2021/08/25 06:29:50;;;;;;;9.00;8.13;;;15.10;99.90;;;;;;5031643;28;20174;-78
2021/08/25 06:32:16;;;;;;;9.30;8.50;;;15.20;99.90;;;;;;5033047;28;20178;-79
2021/08/25 06:37:20;;;;;;;9.47;7.60;;;15.30;99.90;;;;;;5020741;28;20207;-80
2021/08/25 06:39:46;;;;;;;8.47;7.87;;;15.40;99.90;;;;;;5003536;28;20539;-81
2021/08/25 06:42:11;;;;;;;9.10;8.17;;;15.50;99.90;;;;;;5003927;28;20201;-80
2021/08/25 06:44:37;;;;;;;7.83;7.13;;;15.50;99.90;;;;;;5022454;28;20268;-80
2021/08/25 06:47:03;;;;;;;8.00;7.40;;;15.50;99.90;;;;;;5021246;28;20569;-81
2021/08/25 06:49:28;;;;;;;8.00;7.40;;;15.50;99.90;;;;;;5022647;28;20210;-80
2021/08/25 06:51:54;;;;;;;8.47;7.77;;;15.40;99.90;;;;;;5004460;28;20177;-80
2021/08/25 06:54:20;;;;;;;8.37;7.63;;;15.40;99.90;;;;;;5005030;28;20179;-81
2021/08/25 06:56:45;;;;;;;8.70;7.77;;;15.30;99.90;;;;;;5022285;28;20218;-81
2021/08/25 06:59:11;;;;;;;7.63;7.03;;;15.30;99.90;;;;;;5021918;28;20522;-80
2021/08/25 07:01:36;;;;;;;8.07;7.37;;;15.30;99.90;;;;;;5021900;28;20566;-80
2021/08/25 07:04:02;;;;;;;9.30;8.40;;;15.30;99.90;;;;;;5022473;28;20178;-81
2021/08/25 07:06:28;;;;;;;7.83;7.13;;;15.20;99.90;;;;;;5004564;28;20192;-80
2021/08/25 07:08:53;;;;;;;8.57;7.87;;;15.20;99.90;;;;;;5004493;28;20660;-80
2021/08/25 07:11:19;;;;;;;8.47;7.57;;;15.10;99.90;;;;;;5020840;28;20207;-80
2021/08/25 07:13:45;;;;;;;9.43;7.40;;;15.20;99.90;;;;;;5017964;28;20221;-80
2021/08/25 07:16:12;;;;;;;9.57;7.70;;;15.20;99.90;;;;;;5019533;28;20187;-80
2021/08/25 07:18:38;;;;;;;8.50;7.70;;;15.20;99.90;;;;;;5022258;28;20595;-80
2021/08/25 07:21:04;;;;;;;8.63;7.93;;;15.10;99.90;;;;;;5020116;28;20191;-80
2021/08/25 07:23:30;;;;;;;7.87;7.27;;;15.10;99.90;;;;;;5020064;28;20174;-80
2021/08/25 07:25:56;;;;;;;7.70;7.10;;;15.10;99.90;;;;;;5022736;28;20195;-80
2021/08/25 07:28:22;;;;;;;7.33;6.63;;;15.20;99.90;;;;;;5021406;28;20646;-81
2021/08/25 07:30:48;;;;;;;8.03;7.33;;;15.20;99.90;;;;;;5004477;28;20206;-80
2021/08/25 07:33:15;;;;;;;7.20;6.50;;;15.20;99.90;;;;;;5019406;28;20190;-81
2021/08/25 07:35:41;;;;;;;8.23;7.37;;;15.20;99.90;;;;;;5001040;28;20215;-81
2021/08/25 07:38:07;;;;;;;6.93;6.43;;;15.20;99.90;;;;;;5019565;28;20175;-81
2021/08/25 07:40:32;;;;;;;7.63;6.93;;;15.20;99.90;;;;;;5021131;28;20198;-82
2021/08/25 07:42:58;;;;;;;6.80;6.30;;;15.20;99.90;;;;;;5002933;28;20567;-81
2021/08/25 07:45:27;;;;;;;6.63;6.00;;;15.30;99.90;;;;;;5021854;28;20202;-81
2021/08/25 07:47:52;;;;;;;6.20;5.80;;;15.20;99.90;;;;;;5022112;28;20222;-81
2021/08/25 07:50:18;;;;;;;7.80;7.00;;;15.30;99.90;;;;;;5022954;28;20175;-81
2021/08/25 07:52:43;;;;;;;7.30;6.70;;;15.30;99.90;;;;;;5004957;28;20175;-82
2021/08/25 07:55:09;;;;;;;6.93;6.40;;;15.30;99.90;;;;;;5005120;28;20195;-81
2021/08/25 07:57:35;;;;;;;7.90;7.20;;;15.30;99.90;;;;;;5005568;28;20183;-81
2021/08/25 08:00:01;;;;;;;7.93;7.33;;;15.30;99.90;;;;;;5023064;28;20168;-81
2021/08/25 08:02:26;;;;;;;6.57;5.97;;;15.30;99.90;;;;;;5005296;28;20199;-81
2021/08/25 08:04:52;;;;;;;9.60;7.63;;;15.30;99.90;;;;;;5022476;28;20173;-81
2021/08/25 08:07:17;;;;;;;8.10;7.40;;;15.30;99.90;;;;;;5005013;28;20262;-81
2021/08/25 08:09:43;;;;;;;7.60;7.00;;;15.30;99.90;;;;;;5021575;28;20175;-81
2021/08/25 08:12:09;;;;;;;7.97;7.17;;;15.30;99.90;;;;;;5022532;28;20168;-82
2021/08/25 08:14:34;;;;;;;7.57;6.97;;;15.30;99.90;;;;;;5005674;28;20186;-83
2021/08/25 08:17:03;;;;;;;10.97;7.30;;;15.40;99.90;;;;;;5022383;28;20194;-81
2021/08/25 08:19:29;;;;;;;7.87;7.27;;;15.40;99.90;;;;;;5021866;28;20230;-81
2021/08/25 08:21:56;;;;;;;8.30;6.97;;;15.40;99.90;;;;;;5004825;28;20214;-81
2021/08/25 08:24:21;;;;;;;7.50;6.73;;;15.40;99.90;;;;;;5004231;28;20266;-81
2021/08/25 08:26:47;;;;;;;7.23;6.63;;;15.40;99.90;;;;;;5021423;28;20279;-82
2021/08/25 08:29:14;;;;;;;7.90;7.07;;;15.50;99.90;;;;;;5022017;28;20167;-83
2021/08/25 08:31:40;;;;;;;7.40;6.70;;;15.50;99.90;;;;;;5020954;28;20642;-82
2021/08/25 08:34:06;;;;;;;6.80;6.20;;;15.50;99.90;;;;;;5021781;28;20229;-82
2021/08/25 08:36:31;;;;;;;7.00;6.33;;;15.50;99.90;;;;;;5021690;28;20263;-82
2021/08/25 08:38:57;;;;;;;7.17;6.50;;;15.50;99.90;;;;;;5022009;28;20227;-82
2021/08/25 08:41:23;;;;;;;8.33;6.73;;;15.50;99.90;;;;;;5003783;28;20187;-82
2021/08/25 08:43:51;;;;;;;7.63;6.93;;;15.60;99.90;;;;;;5004307;28;20215;-82
2021/08/25 08:46:19;;;;;;;7.40;6.80;;;15.60;99.90;;;;;;5022668;28;20187;-82
2021/08/25 08:48:46;;;;;;;8.10;7.40;;;15.60;99.90;;;;;;5005623;28;20697;-82
2021/08/25 08:51:18;;;;;;;7.83;6.30;;;15.60;99.90;;;;;;5003852;28;20225;-83
2021/08/25 08:53:44;;;;;;;6.93;6.37;;;15.60;99.90;;;;;;5022865;28;20631;-82
2021/08/25 08:56:10;;;;;;;6.87;6.33;;;15.70;99.90;;;;;;5021032;28;20191;-82
2021/08/25 08:58:42;;;;;;;6.47;5.87;;;15.70;99.90;;;;;;5003298;28;20661;-82
2021/08/25 09:01:09;;;;;;;6.10;5.60;;;15.70;99.90;;;;;;5004434;28;20293;-83
2021/08/25 09:03:36;;;;;;;10.03;5.50;;;15.80;99.90;;;;;;5003173;28;20178;-82
2021/08/25 09:06:06;;;;;;;6.60;6.10;;;15.90;99.90;;;;;;5020711;28;20194;-82
2021/08/25 09:08:37;;;;;;;5.90;5.30;;;16.00;99.90;;;;;;5005338;28;20181;-82
2021/08/25 09:11:07;;;;;;;6.60;6.10;;;16.00;99.90;;;;;;5022425;28;20230;-82
2021/08/25 09:13:38;;;;;;;5.80;5.30;;;16.00;99.90;;;;;;5003557;28;20186;-82
2021/08/25 09:16:04;;;;;;;6.07;5.50;;;16.00;99.90;;;;;;5003848;28;20199;-83
2021/08/25 09:18:30;;;;;;;6.00;5.50;;;16.10;99.90;;;;;;5022022;28;20176;-82
2021/08/25 09:20:56;;;;;;;7.00;6.33;;;16.10;99.90;;;;;;5004057;28;20261;-82
2021/08/25 09:23:28;;;;;;;6.63;5.10;;;16.20;99.90;;;;;;5003884;28;20276;-83
2021/08/25 09:26:00;;;;;;;6.10;5.60;;;16.20;99.90;;;;;;5004366;28;20195;-82
2021/08/25 09:28:34;;;;;;;6.10;5.50;;;16.30;99.90;;;;;;5021959;28;20205;-82
2021/08/25 09:31:08;;;;;;;6.23;5.70;;;16.30;99.90;;;;;;4990435;28;20188;-82
2021/08/25 09:33:37;;;;;;;6.37;5.87;;;16.30;99.90;;;;;;5021789;28;20177;-82
2021/08/25 09:36:05;;;;;;;5.63;5.23;;;16.40;99.90;;;;;;5003221;28;20226;-82
2021/08/25 09:38:33;;;;;;;5.83;5.33;;;16.50;99.90;;;;;;5021230;28;20179;-82
2021/08/25 09:41:06;;;;;;;6.30;5.80;;;16.50;99.90;;;;;;5021833;28;20195;-82
2021/08/25 09:43:34;;;;;;;5.70;5.30;;;16.50;99.90;;;;;;5021561;28;20222;-83
2021/08/25 09:46:25;;;;;;;6.33;5.73;;;16.60;99.90;;;;;;5020768;28;20206;-82
2021/08/25 09:48:59;;;;;;;5.80;5.30;;;16.60;99.90;;;;;;5022100;28;20261;-82
2021/08/25 09:51:43;;;;;;;6.27;5.67;;;16.60;99.90;;;;;;5002800;28;20202;-82
2021/08/25 09:54:11;;;;;;;6.30;5.80;;;16.60;99.90;;;;;;5021071;28;20189;-83
2021/08/25 09:56:38;;;;;;;5.93;5.50;;;16.70;99.90;;;;;;5020222;28;20676;-82
2021/08/25 09:59:07;;;;;;;5.90;5.40;;;16.70;99.90;;;;;;5021569;28;20243;-82
2021/08/25 10:01:34;;;;;;;5.80;5.40;;;16.90;99.90;;;;;;5003122;28;20208;-82
2021/08/25 10:04:02;;;;;;;6.07;5.57;;;17.10;99.90;;;;;;5003754;28;20179;-82
2021/08/25 10:06:28;;;;;;;6.07;5.57;;;17.20;99.90;;;;;;5020512;28;20194;-81
2021/08/25 10:08:54;;;;;;;5.90;5.50;;;17.40;99.90;;;;;;5021503;28;20178;-83
2021/08/25 10:11:31;;;;;;;6.27;5.77;;;17.50;99.90;;;;;;5021295;28;20198;-81
2021/08/25 10:13:58;;;;;;;5.90;5.40;;;17.60;99.90;;;;;;5022197;28;20179;-81
2021/08/25 10:16:52;;;;;;;6.00;5.57;;;17.70;99.90;;;;;;5025385;28;20203;-81
2021/08/25 10:19:36;;;;;;;5.73;5.23;;;17.70;99.90;;;;;;5007076;28;20171;-82
2021/08/25 10:22:14;;;;;;;5.97;5.47;;;17.80;99.90;;;;;;5022816;28;20195;-82
2021/08/25 10:24:55;;;;;;;5.90;5.30;;;17.80;99.90;;;;;;5003495;28;20205;-81
2021/08/25 10:27:22;;;;;;;6.40;5.10;;;17.80;99.90;;;;;;5021354;28;20599;-81
2021/08/25 10:30:17;;;;;;;5.47;5.07;;;17.80;99.90;;;;;;5004182;28;20269;-81
2021/08/25 10:32:52;;;;;;;5.30;4.90;;;17.80;99.90;;;;;;4999511;28;20190;-81
2021/08/25 10:35:23;;;;;;;5.83;5.27;;;17.90;99.90;;;;;;5004190;28;20202;-81
2021/08/25 10:37:51;;;;;;;5.03;4.57;;;17.90;99.90;;;;;;5021504;28;20227;-81
2021/08/25 10:40:30;;;;;;;6.87;5.17;;;17.90;99.90;;;;;;5022035;28;20174;-81
2021/08/25 10:43:00;;;;;;;5.30;4.67;;;18.00;99.90;;;;;;5003821;28;20213;-81
2021/08/25 10:45:38;;;;;;;7.50;4.50;;;18.10;99.90;;;;;;5022682;28;20567;-82
2021/08/25 10:48:09;;;;;;;5.00;4.60;;;18.30;99.90;;;;;;5021871;28;20171;-81
2021/08/25 10:50:54;;;;;;;5.50;4.97;;;18.50;99.90;;;;;;5021494;28;20147;-81
2021/08/25 10:53:28;;;;;;;5.80;5.30;;;18.80;99.90;;;;;;5023112;28;20159;-81
2021/08/25 10:56:23;;;;;;;4.97;4.57;;;19.00;99.90;;;;;;5007392;28;20240;-84
2021/08/25 10:58:54;;;;;;;5.00;4.60;;;19.00;99.90;;;;;;5014445;28;20657;-82
2021/08/25 11:01:24;;;;;;;4.53;4.13;;;19.00;99.90;;;;;;5023070;28;20179;-82
2021/08/25 11:03:52;;;;;;;5.40;5.00;;;19.20;99.90;;;;;;5024510;28;20508;-83
2021/08/25 11:06:38;;;;;;;4.80;4.30;;;19.30;99.90;;;;;;5023706;28;20229;-82
2021/08/25 11:09:20;;;;;;;5.47;4.97;;;19.40;99.90;;;;;;5006078;28;20278;-83
2021/08/25 11:11:51;;;;;;;6.67;4.83;;;19.60;99.90;;;;;;5023268;28;20527;-83
2021/08/25 11:14:23;;;;;;;5.10;4.67;;;19.70;99.90;;;;;;5022471;28;20167;-81
2021/08/25 11:16:51;;;;;;;5.00;4.00;;;19.80;99.90;;;;;;5023615;28;20198;-82
2021/08/25 11:19:25;;;;;;;5.23;4.20;;;19.90;99.90;;;;;;5023777;28;20182;-83
2021/08/25 11:21:51;;;;;;;5.13;4.50;;;19.90;99.90;;;;;;5005653;28;20745;-83
2021/08/25 11:24:17;;;;;;;4.50;4.10;;;19.90;99.90;;;;;;5004531;28;20556;-83
2021/08/25 11:26:43;;;;;;;3.77;3.47;;;19.80;99.90;;;;;;5021967;28;20194;-82
2021/08/25 11:29:19;;;;;;;5.03;4.30;;;19.90;99.90;;;;;;5023508;28;20226;-83
2021/08/25 11:31:46;;;;;;;4.37;3.97;;;19.90;99.90;;;;;;5005631;28;20237;-82
2021/08/25 11:34:13;;;;;;;4.40;4.00;;;20.00;99.90;;;;;;5022881;28;20171;-83
2021/08/25 11:37:00;;;;;;;4.07;3.53;;;20.10;99.90;;;;;;5022908;28;20234;-83
2021/08/25 11:39:26;;;;;;;4.00;3.70;;;20.20;99.90;;;;;;5005482;28;20179;-83
2021/08/25 11:41:53;;;;;;;4.10;3.80;;;20.30;99.90;;;;;;5007480;28;20281;-82
2021/08/25 11:44:43;;;;;;;4.30;3.93;;;20.40;99.90;;;;;;5004873;28;20174;-82
2021/08/25 11:47:10;;;;;;;4.17;2.77;;;20.40;99.90;;;;;;5022166;28;20237;-82
2021/08/25 11:49:35;;;;;;;3.13;2.83;;;20.30;99.90;;;;;;5023021;28;20171;-82
2021/08/25 11:52:02;;;;;;;3.23;2.93;;;20.40;99.90;;;;;;5021379;28;20669;-83
2021/08/25 11:54:28;;;;;;;3.27;2.97;;;20.60;99.90;;;;;;5004654;28;20211;-82
2021/08/25 11:56:54;;;;;;;3.10;2.80;;;20.70;99.90;;;;;;5021866;28;20210;-81
2021/08/25 11:59:21;;;;;;;3.00;2.50;;;20.70;99.90;;;;;;5021544;28;20254;-82
2021/08/25 12:01:46;;;;;;;2.80;2.60;;;20.60;99.90;;;;;;5005002;28;20695;-82
2021/08/25 12:04:28;;;;;;;3.97;3.37;;;20.50;99.90;;;;;;5004284;28;20258;-82
2021/08/25 12:06:55;;;;;;;5.30;2.60;;;20.60;99.90;;;;;;5022898;28;20194;-83
2021/08/25 12:09:31;;;;;;;3.77;2.30;;;20.60;99.90;;;;;;5003049;28;20592;-82
2021/08/25 12:11:57;;;;;;;3.90;2.90;;;20.70;99.90;;;;;;5005464;28;20649;-82
2021/08/25 12:14:23;;;;;;;2.63;2.43;;;20.80;99.90;;;;;;5003610;28;20204;-82
2021/08/25 12:17:06;;;;;;;2.97;2.67;;;21.00;99.90;;;;;;5020678;28;20206;-82
2021/08/25 12:19:34;;;;;;;6.53;2.20;;;21.20;99.90;;;;;;5004142;28;20167;-82
2021/08/25 12:22:20;;;;;;;4.43;2.37;;;21.30;99.90;;;;;;5004569;28;20194;-82
2021/08/25 12:24:45;;;;;;;4.43;2.50;;;21.30;99.90;;;;;;5003846;28;20175;-84
2021/08/25 12:27:12;;;;;;;3.83;2.57;;;21.30;99.90;;;;;;4988420;28;20250;-82
2021/08/25 12:29:43;;;;;;;2.83;2.63;;;21.50;99.90;;;;;;5021419;28;20164;-82
2021/08/25 12:32:10;;;;;;;3.40;2.60;;;21.50;99.90;;;;;;4987935;28;20623;-83
2021/08/25 12:34:54;;;;;;;2.80;2.53;;;21.40;99.90;;;;;;5003572;28;20190;-82
2021/08/25 12:37:20;;;;;;;2.40;2.20;;;21.50;99.90;;;;;;5004400;23;20231;-81
2021/08/25 12:39:45;;;;;;;2.50;2.30;;;21.40;99.90;;;;;;4985852;28;20210;-81
2021/08/25 12:42:12;;;;;;;3.07;2.87;;;21.40;99.90;;;;;;5004257;28;20275;-81
2021/08/25 12:44:38;;;;;;;2.43;2.23;;;21.30;99.90;;;;;;4986061;28;20168;-81
2021/08/25 12:47:05;;;;;;;3.10;2.33;;;21.40;99.90;;;;;;5003725;28;20184;-80
2021/08/25 12:49:33;;;;;;;2.60;2.40;;;21.50;99.90;;;;;;4986260;28;20178;-81
2021/08/25 12:52:00;;;;;;;2.80;2.60;;;21.70;99.90;;;;;;4988839;28;20250;-78